»·PEaware :: FFT9201 KPHX-KSNA

FFT9201 :: KPHX-KSNA

FLIGHT INFORMATION

Flight Status: Arrived
Operator:
Frontier Airlines
More flights by this operator :: More flights under this callsign
Pilot: Andrew J. (13363)
Aircraft: AIRBUS A320
(A320)
More flights by this aircraft type
Origin: KPHX Phoenix Sky Harbor Intl
United States
Destination: KSNA John Wayne-Orange Co
United States
More flights between these airports :: More routes between these airports
Route: +KEENS2 HRRBR EMLLD DSNEE4
File this flight plan on PilotEdge
Remarks:
Altitude:
(Current/Filed)
32,000ft
Speed:
(Current/Filed)
450kts
Departed: 13-Oct-20 07:27 PM
Arrived: 13-Oct-20 08:32 PM
Distance/Time
Traveled:
293nm/1:05
Distance/Time
To Go:
Arrived

Flight Plot

Page will automatically refresh every two minutes.

Flight plan parsing failed; only flown route is shown


Map Options




Map Legend


Flown Route
Filed Route
Departure Airport
Arrival Airport
Navaid (VOR, NDB)
Fix

Horizontal Profiles

Position Reports

Time Latitude Longitude Heading Altitude Ground
Speed
13-Oct-20 19:08 33.433608 -112.008350 322 1127ft 0kts
13-Oct-20 19:08 33.433608 -112.008350 322 1127ft 0kts
13-Oct-20 19:10 33.433608 -112.008351 322 1127ft 0kts
13-Oct-20 19:10 33.433608 -112.008351 322 1127ft 0kts
13-Oct-20 19:11 33.433608 -112.008351 322 1127ft 0kts
13-Oct-20 19:12 33.433608 -112.008351 322 1127ft 0kts
13-Oct-20 19:13 33.433500 -112.008227 300 1127ft 2kts
13-Oct-20 19:14 33.433562 -112.007586 221 1127ft 0kts
13-Oct-20 19:15 33.433617 -112.007535 218 1127ft 0kts
13-Oct-20 19:16 33.433617 -112.007535 218 1127ft 0kts
13-Oct-20 19:17 33.433617 -112.007535 218 1127ft 0kts
13-Oct-20 19:18 33.433617 -112.007535 218 1127ft 0kts
13-Oct-20 19:19 33.433617 -112.007535 218 1127ft 0kts
13-Oct-20 19:20 33.433588 -112.007562 218 1127ft 1kts
13-Oct-20 19:21 33.433306 -112.007586 173 1127ft 5kts
13-Oct-20 19:22 33.432133 -112.006310 89 1127ft 13kts
13-Oct-20 19:23 33.432142 -111.998478 88 1125ft 28kts
13-Oct-20 19:24 33.432025 -111.993493 136 1127ft 0kts
13-Oct-20 19:25 33.431026 -111.994040 264 1126ft 12kts
13-Oct-20 19:26 33.431626 -112.031363 274 2375ft 148kts
13-Oct-20 19:27 33.419688 -112.085624 254 4520ft 198kts
13-Oct-20 19:28 33.400302 -112.159898 253 6849ft 263kts
13-Oct-20 19:29 33.400245 -112.247204 280 9499ft 270kts
13-Oct-20 19:30 33.414479 -112.343089 277 12031ft 310kts
13-Oct-20 19:31 33.428983 -112.448301 278 14591ft 337kts
13-Oct-20 19:32 33.444470 -112.562190 279 17193ft 353kts
13-Oct-20 19:33 33.451159 -112.676949 272 19352ft 369kts
13-Oct-20 19:34 33.455495 -112.804716 279 21302ft 384kts
13-Oct-20 19:35 33.477641 -112.932936 285 23135ft 396kts
13-Oct-20 19:36 33.502297 -113.065121 286 24739ft 409kts
13-Oct-20 19:37 33.527689 -113.202175 287 26194ft 420kts
13-Oct-20 19:38 33.553428 -113.342202 288 27757ft 424kts
13-Oct-20 19:39 33.578893 -113.481530 288 29317ft 424kts
13-Oct-20 19:40 33.604767 -113.620776 290 30672ft 425kts
13-Oct-20 19:41 33.630486 -113.759691 290 31893ft 427kts
13-Oct-20 19:42 33.662944 -113.896401 299 32133ft 422kts
13-Oct-20 19:43 33.711426 -114.024728 302 32133ft 419kts
13-Oct-20 19:44 33.754236 -114.156472 293 32131ft 427kts
13-Oct-20 19:45 33.775763 -114.297010 285 30555ft 421kts
13-Oct-20 19:46 33.791866 -114.435903 284 28157ft 412kts
13-Oct-20 19:47 33.807596 -114.573167 284 28136ft 414kts
13-Oct-20 19:48 33.823337 -114.711551 283 28133ft 414kts
13-Oct-20 19:49 33.838880 -114.849288 283 28134ft 414kts
13-Oct-20 19:50 33.854297 -114.987345 283 28134ft 415kts
13-Oct-20 19:51 33.869597 -115.125502 283 28136ft 414kts
13-Oct-20 19:52 33.884759 -115.263691 283 28134ft 414kts
13-Oct-20 19:53 33.900095 -115.404273 283 28138ft 432kts
13-Oct-20 19:54 33.915610 -115.549337 283 28134ft 432kts
13-Oct-20 19:55 33.929454 -115.694828 280 28135ft 441kts
13-Oct-20 19:56 33.939190 -115.828529 275 28068ft 469kts
13-Oct-20 19:57 33.949458 -115.980064 275 27967ft 441kts
13-Oct-20 19:58 33.959661 -116.128151 275 27959ft 442kts
13-Oct-20 19:59 33.955852 -116.276321 262 27965ft 444kts
13-Oct-20 20:00 33.938174 -116.416979 262 26284ft 417kts
13-Oct-20 20:01 33.921398 -116.552077 262 24216ft 400kts
13-Oct-20 20:02 33.905397 -116.676254 262 22168ft 388kts
13-Oct-20 20:03 33.889746 -116.802946 263 20098ft 375kts
13-Oct-20 20:04 33.876608 -116.925271 263 18096ft 363kts
13-Oct-20 20:05 33.863589 -117.043410 262 16100ft 351kts
13-Oct-20 20:06 33.850715 -117.158825 261 14023ft 343kts
13-Oct-20 20:07 33.838195 -117.270296 261 12280ft 326kts
13-Oct-20 20:08 33.826341 -117.375101 261 10765ft 302kts
13-Oct-20 20:09 33.811951 -117.467134 249 8689ft 256kts
13-Oct-20 20:10 33.809666 -117.543194 291 7328ft 226kts
13-Oct-20 20:11 33.831651 -117.608106 292 6540ft 195kts
13-Oct-20 20:12 33.850462 -117.665781 291 5606ft 175kts
13-Oct-20 20:13 33.867860 -117.720490 282 4378ft 173kts
13-Oct-20 20:14 33.840435 -117.762807 211 3230ft 158kts
13-Oct-20 20:15 33.805065 -117.786801 209 2790ft 143kts
13-Oct-20 20:16 33.770116 -117.809123 208 2039ft 141kts
13-Oct-20 20:17 33.735407 -117.831055 208 1284ft 140kts
13-Oct-20 20:18 33.700994 -117.852806 207 513ft 138kts
13-Oct-20 20:19 33.663626 -117.876722 208 1528ft 164kts
13-Oct-20 20:20 33.612430 -117.909653 208 1995ft 226kts
13-Oct-20 20:21 33.564526 -117.951457 257 2160ft 225kts
13-Oct-20 20:22 33.605105 -118.005093 341 2996ft 246kts
13-Oct-20 20:23 33.669956 -117.994913 26 2998ft 248kts
13-Oct-20 20:24 33.731263 -117.958052 26 2991ft 236kts
13-Oct-20 20:25 33.783687 -117.926362 26 3003ft 194kts
13-Oct-20 20:26 33.812622 -117.881380 110 2959ft 190kts
13-Oct-20 20:27 33.792925 -117.823662 133 2179ft 180kts
13-Oct-20 20:28 33.750233 -117.824157 202 1979ft 140kts
13-Oct-20 20:29 33.715545 -117.843609 208 876ft 138kts
13-Oct-20 20:30 33.680813 -117.865596 208 96ft 136kts
13-Oct-20 20:31 33.667617 -117.872515 53 64ft 12kts
13-Oct-20 20:32 33.670785 -117.869152 40 64ft 17kts
13-Oct-20 20:33 33.675188 -117.865777 27 64ft 20kts
13-Oct-20 20:34 33.677809 -117.864012 70 64ft 4kts
13-Oct-20 20:35 33.677584 -117.863442 117 64ft 0kts
13-Oct-20 20:36 33.677584 -117.863442 117 64ft 0kts
13-Oct-20 20:37 33.677584 -117.863442 117 64ft 0kts
13-Oct-20 20:38 33.677584 -117.863442 117 64ft 0kts
13-Oct-20 20:39 33.677584 -117.863442 117 64ft 0kts
13-Oct-20 20:40 33.677584 -117.863442 117 64ft 0kts
13-Oct-20 20:41 33.677584 -117.863442 117 64ft 0kts

Navigation Log

Ident Type
Flight plan parsing failed, navigation log unavailable